Time;durP1;ratioP1;P1;durP2;ratioP2;P2;SDS_P1;SDS_P2;PMS_P1;PMS_P2;Temp;Humidity;BMP_temperature;BMP_pressure;BME280_temperature;BME280_humidity;BME280_pressure;Samples;Min_cycle;Max_cycle;Signal;HPM_P1;HPM_P2
2021/08/08 00:00:33;;;;;;;;;;;;;;;15.79;92.04;100154.72;5029925;28;19929;-52
2021/08/08 00:03:00;;;;;;;;;;;;;;;15.78;92.45;100148.59;5031134;28;19921;-50
2021/08/08 00:05:27;;;;;;;;;;;;;;;15.77;92.27;100138.97;5032323;28;19921;-51
2021/08/08 00:07:55;;;;;;;;;;;;;;;15.76;92.36;100155.88;5031379;28;20360;-52
2021/08/08 00:10:22;;;;;;;;;;;;;;;15.75;92.48;100143.59;5029895;28;19925;-51
2021/08/08 00:12:48;;;;;;;;;;;;;;;15.78;92.85;100147.75;5030603;28;20367;-50
2021/08/08 00:15:15;;;;;;;;;;;;;;;15.75;93.24;100145.41;5045628;28;19967;-52
2021/08/08 00:17:42;;;;;;;;;;;;;;;15.79;92.88;100138.81;5045030;28;19921;-46
2021/08/08 00:20:09;;;;;;;;;;;;;;;15.75;93.24;100145.41;5032813;28;19967;-53
2021/08/08 00:22:36;;;;;;;;;;;;;;;15.89;92.53;100143.09;5035845;28;20288;-53
2021/08/08 00:25:03;;;;;;;;;;;;;;;15.77;93.33;100146.09;5034468;28;19920;-52
2021/08/08 00:27:30;;;;;;;;;;;;;;;15.70;93.19;100138.72;5035716;28;19925;-53
2021/08/08 00:29:57;;;;;;;;;;;;;;;15.71;93.62;100140.41;5033965;28;19956;-60
2021/08/08 00:32:24;;;;;;;;;;;;;;;15.75;93.65;100130.34;5032903;28;19963;-60
2021/08/08 00:34:51;;;;;;;;;;;;;;;15.61;94.18;100134.34;5034587;28;20376;-58
2021/08/08 00:37:18;;;;;;;;;;;;;;;15.66;94.38;100134.72;5035248;28;19943;-59
2021/08/08 00:39:44;;;;;;;;;;;;;;;15.72;94.03;100142.06;5035201;28;19992;-59
2021/08/08 00:42:11;;;;;;;;;;;;;;;15.80;93.90;100140.50;5034410;28;19925;-59
2021/08/08 00:44:37;;;;;;;;;;;;;;;15.74;93.92;100130.50;5033814;28;19968;-59
2021/08/08 00:47:04;;;;;;;;;;;;;;;15.74;93.96;100135.78;5047621;28;20379;-59
2021/08/08 00:49:32;;;;;;;;;;;;;;;15.68;94.28;100130.09;5050373;28;20261;-59
2021/08/08 00:51:58;;;;;;;;;;;;;;;15.59;94.58;100133.66;5032260;28;19991;-58
2021/08/08 00:54:25;;;;;;;;;;;;;;;15.63;95.05;100140.31;5048881;28;19928;-58
2021/08/08 00:56:52;;;;;;;;;;;;;;;15.66;95.10;100134.72;5033647;28;19967;-58
2021/08/08 00:59:18;;;;;;;;;;;;;;;15.57;94.77;100146.22;5030710;28;19932;-59
2021/08/08 01:01:45;;;;;;;;;;;;;;;15.63;94.69;100139.50;5034464;28;19921;-59
2021/08/08 01:04:23;;;;;;;;;;;;;;;15.64;95.48;100143.81;5031930;28;19921;-59
2021/08/08 01:06:55;;;;;;;;;;;;;;;15.77;94.92;100135.50;5032677;28;19931;-59
2021/08/08 01:09:22;;;;;;;;;;;;;;;15.68;94.96;100138.06;5050406;28;19921;-59
2021/08/08 01:11:48;;;;;;;;;;;;;;;15.61;95.39;100126.41;5033896;28;19921;-58
2021/08/08 01:14:15;;;;;;;;;;;;;;;15.51;95.72;100154.75;5049867;28;19927;-59
2021/08/08 01:16:42;;;;;;;;;;;;;;;15.52;95.82;100144.00;5034744;28;19975;-58
2021/08/08 01:19:09;;;;;;;;;;;;;;;15.55;95.04;100150.84;5034793;28;20438;-57
2021/08/08 01:21:36;;;;;;;;;;;;;;;15.53;95.48;100160.75;5034675;28;19929;-58
2021/08/08 01:24:03;;;;;;;;;;;;;;;15.52;96.10;100165.22;5049920;28;19921;-58
2021/08/08 01:26:31;;;;;;;;;;;;;;;15.57;95.64;100162.13;5050113;28;19921;-57
2021/08/08 01:28:58;;;;;;;;;;;;;;;15.63;96.08;100161.53;5034405;28;19929;-57
2021/08/08 01:31:25;;;;;;;;;;;;;;;15.60;95.52;100169.78;5048774;28;19921;-58
2021/08/08 01:33:51;;;;;;;;;;;;;;;15.49;95.87;100173.47;5034913;28;20429;-58
2021/08/08 01:36:18;;;;;;;;;;;;;;;15.52;96.09;100170.50;5034507;28;19921;-59
2021/08/08 01:38:52;;;;;;;;;;;;;;;15.51;96.61;100162.72;5032861;28;19971;-57
2021/08/08 01:41:19;;;;;;;;;;;;;;;15.56;95.90;100176.34;5033138;28;19921;-58
2021/08/08 01:43:46;;;;;;;;;;;;;;;15.55;95.43;100179.97;5033171;28;20380;-57
2021/08/08 01:46:13;;;;;;;;;;;;;;;15.49;95.89;100177.94;5048618;28;19991;-58
2021/08/08 01:48:41;;;;;;;;;;;;;;;15.45;95.35;100172.09;5030165;28;20364;-58
2021/08/08 01:51:08;;;;;;;;;;;;;;;15.51;95.96;100179.44;5032486;28;19925;-59
2021/08/08 01:53:34;;;;;;;;;;;;;;;15.55;96.11;100182.63;5049218;28;19925;-58
2021/08/08 01:56:01;;;;;;;;;;;;;;;15.51;95.76;100190.03;5033792;28;19970;-58
2021/08/08 01:58:28;;;;;;;;;;;;;;;15.47;95.58;100196.63;5034089;28;19921;-58
2021/08/08 02:00:55;;;;;;;;;;;;;;;15.51;95.07;100197.16;5033935;28;20027;-58
2021/08/08 02:03:31;;;;;;;;;;;;;;;15.44;96.13;100201.41;5048242;28;20004;-58
2021/08/08 02:05:58;;;;;;;;;;;;;;;15.48;96.55;100203.59;5031015;28;19925;-58
2021/08/08 02:08:25;;;;;;;;;;;;;;;15.46;95.48;100207.38;5033279;28;19921;-58
2021/08/08 02:10:51;;;;;;;;;;;;;;;15.46;96.20;100207.38;5033708;28;20543;-57
2021/08/08 02:13:18;;;;;;;;;;;;;;;15.38;96.30;100216.06;5033589;28;19921;-58
2021/08/08 02:15:44;;;;;;;;;;;;;;;15.40;96.09;100219.38;5033278;28;19925;-57
2021/08/08 02:18:11;;;;;;;;;;;;;;;15.37;96.29;100219.69;5033852;28;19927;-58
2021/08/08 02:20:38;;;;;;;;;;;;;;;15.40;96.50;100223.88;5031650;28;19921;-58
2021/08/08 02:23:05;;;;;;;;;;;;;;;15.35;96.75;100224.28;5029699;28;20365;-59
2021/08/08 02:25:31;;;;;;;;;;;;;;;15.36;96.41;100226.78;5032388;28;20011;-59
2021/08/08 02:27:58;;;;;;;;;;;;;;;15.35;96.32;100233.09;5048848;28;20268;-59
2021/08/08 02:30:24;;;;;;;;;;;;;;;15.39;96.46;100238.91;5049191;28;20299;-58
2021/08/08 02:32:51;;;;;;;;;;;;;;;15.43;95.72;100245.59;5033531;28;19986;-59
2021/08/08 02:35:18;;;;;;;;;;;;;;;15.49;96.08;100244.19;5033508;28;19925;-59
2021/08/08 02:37:44;;;;;;;;;;;;;;;15.52;95.73;100244.72;5048487;28;20388;-59
2021/08/08 02:40:11;;;;;;;;;;;;;;;15.51;95.03;100245.69;5032320;28;19925;-59
2021/08/08 02:42:38;;;;;;;;;;;;;;;15.49;94.59;100252.13;5029724;28;20304;-59
2021/08/08 02:45:05;;;;;;;;;;;;;;;15.38;95.65;100248.69;5030163;28;19943;-52
2021/08/08 02:47:31;;;;;;;;;;;;;;;15.40;94.91;100256.47;5033274;28;19928;-50
2021/08/08 02:49:58;;;;;;;;;;;;;;;15.38;95.02;100258.47;5033063;28;20300;-48
2021/08/08 02:52:25;;;;;;;;;;;;;;;15.43;94.40;100260.66;5033224;28;19921;-52
2021/08/08 02:54:51;;;;;;;;;;;;;;;15.38;94.11;100261.94;5029813;28;19971;-50
2021/08/08 02:57:18;;;;;;;;;;;;;;;15.39;95.09;100265.41;5029882;28;19921;-53
2021/08/08 02:59:44;;;;;;;;;;;;;;;15.28;95.33;100271.72;5032507;28;19921;-50
2021/08/08 03:02:11;;;;;;;;;;;;;;;15.32;95.25;100281.03;5032452;28;20422;-51
2021/08/08 03:04:38;;;;;;;;;;;;;;;15.39;94.23;100281.28;5032828;28;20015;-48
2021/08/08 03:07:05;;;;;;;;;;;;;;;15.31;94.62;100281.19;5032828;28;19921;-51
2021/08/08 03:09:31;;;;;;;;;;;;;;;15.43;94.96;100292.44;5032872;28;19921;-50
2021/08/08 03:11:58;;;;;;;;;;;;;;;15.43;94.05;100285.31;5032934;28;19921;-50
2021/08/08 03:14:25;;;;;;;;;;;;;;;15.40;94.88;100298.03;5031709;28;19925;-48
2021/08/08 03:16:51;;;;;;;;;;;;;;;15.38;94.96;100299.03;5030235;28;19953;-52
2021/08/08 03:19:18;;;;;;;;;;;;;;;15.37;93.46;100305.28;5031811;28;20448;-53
2021/08/08 03:21:45;;;;;;;;;;;;;;;15.38;94.02;100308.78;5031654;28;19921;-50
2021/08/08 03:24:12;;;;;;;;;;;;;;;15.36;94.00;100300.13;5031770;28;19925;-53
2021/08/08 03:26:38;;;;;;;;;;;;;;;15.40;94.44;100320.06;5030463;28;19967;-51
2021/08/08 03:29:05;;;;;;;;;;;;;;;15.40;94.29;100313.94;5029307;28;19966;-48
2021/08/08 03:31:32;;;;;;;;;;;;;;;15.41;94.25;100318.28;5032693;28;19921;-50
2021/08/08 03:33:58;;;;;;;;;;;;;;;15.34;94.17;100310.88;5033164;28;19921;-60
2021/08/08 03:36:25;;;;;;;;;;;;;;;15.37;93.54;100321.19;5031983;28;19924;-60
2021/08/08 03:38:52;;;;;;;;;;;;;;;15.33;93.83;100324.28;5032530;28;19921;-60
2021/08/08 03:41:19;;;;;;;;;;;;;;;15.39;93.36;100334.28;5032867;28;19990;-60
2021/08/08 03:43:45;;;;;;;;;;;;;;;15.36;94.02;100337.22;5044271;28;19951;-61
2021/08/08 03:46:12;;;;;;;;;;;;;;;15.33;93.21;100333.06;5030251;28;19990;-61
2021/08/08 03:48:39;;;;;;;;;;;;;;;15.34;94.36;100337.38;5032184;28;19975;-59
2021/08/08 03:51:05;;;;;;;;;;;;;;;15.42;93.56;100341.97;5032308;28;20317;-61
2021/08/08 03:53:32;;;;;;;;;;;;;;;15.42;93.40;100343.75;5032387;28;20372;-60
2021/08/08 03:55:59;;;;;;;;;;;;;;;15.40;92.69;100345.75;5034802;28;19921;-60
2021/08/08 03:58:30;;;;;;;;;;;;;;;15.37;93.21;100346.84;5036475;28;19925;-60
2021/08/08 04:00:57;;;;;;;;;;;;;;;15.35;92.54;100352.31;5036400;28;19921;-60
2021/08/08 04:03:24;;;;;;;;;;;;;;;15.36;92.53;100363.72;5032309;28;19994;-61
2021/08/08 04:05:51;;;;;;;;;;;;;;;15.38;92.41;100361.78;5033892;28;20308;-60
2021/08/08 04:08:17;;;;;;;;;;;;;;;15.36;92.20;100366.38;5051383;28;19975;-61
2021/08/08 04:10:44;;;;;;;;;;;;;;;15.33;91.83;100362.19;5036068;28;19921;-60
2021/08/08 04:13:10;;;;;;;;;;;;;;;15.38;91.27;100359.97;5051260;28;19957;-61
2021/08/08 04:15:37;;;;;;;;;;;;;;;15.31;91.02;100366.81;5051123;28;19925;-61
2021/08/08 04:18:04;;;;;;;;;;;;;;;15.34;91.33;100374.47;5035986;28;20303;-61
2021/08/08 04:20:31;;;;;;;;;;;;;;;15.31;90.93;100371.25;5036012;28;19983;-61
2021/08/08 04:22:57;;;;;;;;;;;;;;;15.27;92.53;100369.88;5034775;28;19921;-61
2021/08/08 04:25:24;;;;;;;;;;;;;;;15.17;91.74;100376.03;5035959;28;20598;-61
2021/08/08 04:27:50;;;;;;;;;;;;;;;15.24;91.86;100380.75;5035229;28;20367;-60
2021/08/08 04:30:18;;;;;;;;;;;;;;;15.23;91.87;100381.72;5035549;28;19948;-60
2021/08/08 04:32:44;;;;;;;;;;;;;;;15.26;91.50;100381.47;5036031;28;19967;-61
2021/08/08 04:35:11;;;;;;;;;;;;;;;15.34;91.19;100386.88;5035625;28;20376;-60
2021/08/08 04:37:38;;;;;;;;;;;;;;;15.36;91.46;100392.88;5035695;28;19921;-61
2021/08/08 04:40:05;;;;;;;;;;;;;;;15.29;91.21;100391.78;5035486;28;19983;-61
2021/08/08 04:42:35;;;;;;;;;;;;;;;15.24;91.37;100394.81;5035735;28;19948;-60
2021/08/08 04:45:01;;;;;;;;;;;;;;;15.21;90.59;100403.91;5050978;28;19925;-60
2021/08/08 04:47:28;;;;;;;;;;;;;;;15.24;91.21;100410.72;5035366;28;19921;-60
2021/08/08 04:49:54;;;;;;;;;;;;;;;15.27;90.23;100399.88;5034009;28;19921;-60
2021/08/08 04:52:21;;;;;;;;;;;;;;;15.29;90.63;100405.84;5050731;28;19987;-61
2021/08/08 04:54:48;;;;;;;;;;;;;;;15.30;89.68;100407.53;5035648;28;20320;-60
2021/08/08 04:57:14;;;;;;;;;;;;;;;15.31;90.68;100413.66;5035233;28;19921;-61
2021/08/08 04:59:41;;;;;;;;;;;;;;;15.36;89.78;100414.06;5033766;28;19933;-51
2021/08/08 05:02:07;;;;;;;;;;;;;;;15.28;90.77;100422.69;5035137;28;19921;-50
2021/08/08 05:04:37;;;;;;;;;;;;;;;15.35;90.95;100413.25;5034235;28;19921;-50
2021/08/08 05:07:04;;;;;;;;;;;;;;;15.38;89.61;100428.84;5047380;28;19921;-50
2021/08/08 05:09:31;;;;;;;;;;;;;;;15.45;89.01;100417.69;5034033;28;20368;-51
2021/08/08 05:11:57;;;;;;;;;;;;;;;15.42;89.70;100425.91;5033563;28;19925;-48
2021/08/08 05:14:24;;;;;;;;;;;;;;;15.45;89.05;100428.28;5030418;28;19932;-51
2021/08/08 05:16:51;;;;;;;;;;;;;;;15.50;89.84;100426.88;5032512;28;19921;-51
2021/08/08 05:19:18;;;;;;;;;;;;;;;15.48;88.77;100433.28;5033429;28;19921;-50
2021/08/08 05:21:44;;;;;;;;;;;;;;;15.57;88.53;100435.09;5034832;28;19953;-51
2021/08/08 05:24:11;;;;;;;;;;;;;;;15.59;88.34;100440.25;5033357;28;20452;-52
2021/08/08 05:26:38;;;;;;;;;;;;;;;15.61;88.68;100438.28;5032493;28;19925;-50
2021/08/08 05:29:04;;;;;;;;;;;;;;;15.68;88.34;100439.41;5030736;28;19921;-51
2021/08/08 05:31:31;;;;;;;;;;;;;;;15.78;87.68;100450.81;5034843;28;19924;-60
2021/08/08 05:33:58;;;;;;;;;;;;;;;15.83;87.09;100455.72;5034431;28;19928;-61
2021/08/08 05:36:24;;;;;;;;;;;;;;;15.78;86.83;100456.09;5034429;28;19920;-62
2021/08/08 05:38:51;;;;;;;;;;;;;;;15.80;87.74;100456.00;5034448;28;19932;-62
2021/08/08 05:41:17;;;;;;;;;;;;;;;15.79;87.20;100454.28;5030747;28;20013;-60
2021/08/08 05:43:44;;;;;;;;;;;;;;;15.79;86.41;100459.59;5030166;28;19925;-61
2021/08/08 05:46:11;;;;;;;;;;;;;;;15.88;86.90;100458.75;5032659;28;19983;-61
2021/08/08 05:48:38;;;;;;;;;;;;;;;15.82;86.81;100459.34;5033909;28;19921;-61
2021/08/08 05:51:05;;;;;;;;;;;;;;;15.81;87.22;100457.66;5033887;28;20008;-61
2021/08/08 05:53:51;;;;;;;;;;;;;;;15.87;86.08;100465.91;5032681;28;19955;-62
2021/08/08 05:56:18;;;;;;;;;;;;;;;15.81;86.30;100462.97;5034164;28;20012;-61
2021/08/08 05:58:44;;;;;;;;;;;;;;;15.88;87.36;100472.88;5034100;28;19951;-61
2021/08/08 06:01:11;;;;;;;;;;;;;;;16.03;88.03;100480.34;5032447;28;19925;-62
2021/08/08 06:03:38;;;;;;;;;;;;;;;16.02;86.13;100476.88;5032529;28;20277;-62
2021/08/08 06:06:08;;;;;;;;;;;;;;;16.05;85.66;100476.59;5030900;28;19996;-62
2021/08/08 06:08:34;;;;;;;;;;;;;;;16.09;87.04;100469.19;5048623;28;19975;-61
2021/08/08 06:11:01;;;;;;;;;;;;;;;16.20;84.52;100476.13;5032299;28;19926;-62
2021/08/08 06:13:27;;;;;;;;;;;;;;;16.18;85.40;100481.56;5033929;28;19925;-61
2021/08/08 06:15:54;;;;;;;;;;;;;;;16.13;84.55;100482.97;5033554;28;20555;-62
2021/08/08 06:18:21;;;;;;;;;;;;;;;16.03;83.99;100483.88;5033112;28;19927;-62
2021/08/08 06:20:47;;;;;;;;;;;;;;;16.01;84.60;100479.69;5048520;28;20380;-62
2021/08/08 06:23:14;;;;;;;;;;;;;;;16.03;84.42;100485.66;5048934;28;19921;-62
2021/08/08 06:25:40;;;;;;;;;;;;;;;16.17;84.19;100497.63;5033423;28;20036;-62
2021/08/08 06:28:07;;;;;;;;;;;;;;;16.21;83.14;100502.50;5033435;28;19971;-62
2021/08/08 06:30:38;;;;;;;;;;;;;;;16.21;83.54;100499.84;5033527;28;19921;-62
2021/08/08 06:33:05;;;;;;;;;;;;;;;16.32;83.16;100505.94;5033567;28;20016;-62
2021/08/08 06:35:32;;;;;;;;;;;;;;;16.36;83.32;100508.19;5033049;28;19929;-52
2021/08/08 06:37:58;;;;;;;;;;;;;;;16.38;81.54;100508.84;5045553;28;19925;-51
2021/08/08 06:40:25;;;;;;;;;;;;;;;16.35;82.19;100519.75;5031270;28;20379;-54
2021/08/08 06:42:51;;;;;;;;;;;;;;;16.38;82.66;100522.13;5032771;28;20368;-53
2021/08/08 06:45:18;;;;;;;;;;;;;;;16.50;82.42;100529.91;5032069;28;19921;-51
2021/08/08 06:47:45;;;;;;;;;;;;;;;16.61;82.54;100537.69;5033046;28;19924;-50
2021/08/08 06:50:12;;;;;;;;;;;;;;;16.67;81.11;100541.56;5032718;28;19929;-52
2021/08/08 06:52:38;;;;;;;;;;;;;;;16.65;81.26;100540.88;5031649;28;20339;-48
2021/08/08 06:55:05;;;;;;;;;;;;;;;16.71;80.76;100548.25;5046997;28;19928;-50
2021/08/08 06:57:32;;;;;;;;;;;;;;;16.64;79.77;100550.66;5030215;28;19931;-48
2021/08/08 06:59:58;;;;;;;;;;;;;;;16.61;80.92;100548.31;5029768;28;19921;-53
2021/08/08 07:02:25;;;;;;;;;;;;;;;16.68;80.45;100557.34;5031606;28;19971;-53
2021/08/08 07:04:52;;;;;;;;;;;;;;;16.71;79.66;100562.38;5032117;28;19929;-48
2021/08/08 07:07:18;;;;;;;;;;;;;;;16.73;78.64;100556.91;5030639;28;19925;-52
2021/08/08 07:09:45;;;;;;;;;;;;;;;16.69;78.55;100566.16;5030677;28;20414;-51
2021/08/08 07:12:11;;;;;;;;;;;;;;;16.71;79.60;100570.34;5031548;28;19924;-52
2021/08/08 07:14:38;;;;;;;;;;;;;;;16.81;78.76;100577.41;5032763;28;20410;-52
2021/08/08 07:17:05;;;;;;;;;;;;;;;16.87;78.10;100575.00;5033079;28;20008;-52
2021/08/08 07:19:32;;;;;;;;;;;;;;;16.97;77.93;100579.47;5030445;28;19927;-50
2021/08/08 07:21:59;;;;;;;;;;;;;;;17.01;78.09;100579.00;5030311;28;20392;-62
2021/08/08 07:24:25;;;;;;;;;;;;;;;17.23;76.74;100590.22;5032642;28;19956;-62
2021/08/08 07:26:52;;;;;;;;;;;;;;;17.37;77.36;100587.06;5032700;28;19921;-63
2021/08/08 07:29:19;;;;;;;;;;;;;;;17.43;76.07;100590.09;5033248;28;20061;-61
2021/08/08 07:31:53;;;;;;;;;;;;;;;17.43;74.40;100590.91;5035515;28;19925;-61
2021/08/08 07:34:20;;;;;;;;;;;;;;;17.51;74.91;100603.47;5052055;28;19947;-62
2021/08/08 07:36:47;;;;;;;;;;;;;;;17.73;75.62;100603.00;5036346;28;19921;-62
2021/08/08 07:39:14;;;;;;;;;;;;;;;17.75;74.36;100600.19;5051803;28;19920;-62
2021/08/08 07:41:41;;;;;;;;;;;;;;;17.83;73.35;100610.91;5036598;28;20347;-63
2021/08/08 07:44:07;;;;;;;;;;;;;;;17.97;73.64;100614.88;5035256;28;19928;-63
2021/08/08 07:46:34;;;;;;;;;;;;;;;18.02;71.31;100612.56;5035260;28;20284;-61
2021/08/08 07:49:00;;;;;;;;;;;;;;;18.20;71.46;100617.03;5032860;28;20384;-62
2021/08/08 07:51:27;;;;;;;;;;;;;;;18.26;72.93;100619.09;5034675;28;19921;-62
2021/08/08 07:53:54;;;;;;;;;;;;;;;18.33;70.59;100620.13;5051890;28;19921;-63
2021/08/08 07:56:21;;;;;;;;;;;;;;;18.52;69.95;100618.25;5033963;28;19952;-63
2021/08/08 07:58:47;;;;;;;;;;;;;;;18.75;69.73;100623.88;5028546;28;19940;-62
2021/08/08 08:01:14;;;;;;;;;;;;;;;18.86;69.53;100630.75;5036019;28;20387;-63
2021/08/08 08:03:41;;;;;;;;;;;;;;;18.78;69.91;100628.88;5036137;28;19921;-48
2021/08/08 08:06:07;;;;;;;;;;;;;;;18.67;68.94;100632.66;5036106;28;20364;-53
2021/08/08 08:08:34;;;;;;;;;;;;;;;18.87;69.11;100637.72;5035918;28;19927;-53
2021/08/08 08:11:01;;;;;;;;;;;;;;;18.91;68.15;100633.81;5035649;28;19995;-54
2021/08/08 08:13:28;;;;;;;;;;;;;;;19.00;66.10;100643.50;5035542;28;20354;-52
2021/08/08 08:15:54;;;;;;;;;;;;;;;18.95;65.65;100631.66;5047468;28;20432;-50
2021/08/08 08:18:22;;;;;;;;;;;;;;;19.19;67.28;100641.56;5033796;28;19921;-52
2021/08/08 08:20:49;;;;;;;;;;;;;;;19.34;67.31;100634.63;5035685;28;19921;-51
2021/08/08 08:23:16;;;;;;;;;;;;;;;19.52;64.21;100644.34;5035505;28;19929;-49
2021/08/08 08:25:43;;;;;;;;;;;;;;;19.45;65.18;100638.00;5050518;28;19925;-47
2021/08/08 08:28:12;;;;;;;;;;;;;;;19.35;64.12;100640.81;5028900;28;20361;-53
2021/08/08 08:30:39;;;;;;;;;;;;;;;19.36;64.88;100631.78;5033057;28;20396;-52
2021/08/08 08:33:06;;;;;;;;;;;;;;;19.13;64.61;100658.19;5035480;28;19925;-53
2021/08/08 08:35:40;;;;;;;;;;;;;;;19.57;65.10;100652.69;5035604;28;19960;-53
2021/08/08 08:38:07;;;;;;;;;;;;;;;19.66;62.99;100642.84;5035736;28;19928;-61
2021/08/08 08:40:35;;;;;;;;;;;;;;;19.86;63.59;100646.91;5033842;28;20422;-62
2021/08/08 08:43:02;;;;;;;;;;;;;;;19.94;62.45;100648.75;5030012;28;20639;-62
2021/08/08 08:45:29;;;;;;;;;;;;;;;19.89;64.07;100659.09;5033142;28;19921;-62
2021/08/08 08:47:55;;;;;;;;;;;;;;;19.92;62.39;100656.94;5035477;28;19928;-63
2021/08/08 08:50:22;;;;;;;;;;;;;;;20.00;61.72;100657.94;5035757;28;19965;-62
2021/08/08 08:52:50;;;;;;;;;;;;;;;20.07;60.85;100670.44;5050473;28;19928;-63
2021/08/08 08:55:17;;;;;;;;;;;;;;;19.76;60.86;100673.72;5050433;28;20015;-62
2021/08/08 08:57:43;;;;;;;;;;;;;;;19.80;60.79;100679.59;5030884;28;19932;-62
2021/08/08 09:00:11;;;;;;;;;;;;;;;20.06;61.83;100687.47;5031899;28;19928;-51
2021/08/08 09:02:38;;;;;;;;;;;;;;;19.99;60.51;100680.28;5035255;28;19928;-53
2021/08/08 09:05:05;;;;;;;;;;;;;;;20.22;60.84;100685.78;5047903;28;19963;-63
2021/08/08 09:07:32;;;;;;;;;;;;;;;20.18;60.09;100679.97;5031422;28;19925;-62
2021/08/08 09:09:58;;;;;;;;;;;;;;;20.14;58.83;100685.78;5034028;28;19928;-63
2021/08/08 09:12:26;;;;;;;;;;;;;;;20.30;60.38;100690.28;5034991;28;20281;-62
2021/08/08 09:15:03;;;;;;;;;;;;;;;20.42;60.02;100691.63;5049942;28;20357;-64
2021/08/08 09:17:34;;;;;;;;;;;;;;;20.60;59.54;100694.09;5034832;28;19928;-63
2021/08/08 09:20:02;;;;;;;;;;;;;;;20.65;59.09;100707.78;5050009;28;20471;-61
2021/08/08 09:22:29;;;;;;;;;;;;;;;20.75;57.98;100702.28;5031633;28;19960;-61
2021/08/08 09:25:00;;;;;;;;;;;;;;;20.95;58.07;100697.41;5031810;28;19999;-62
2021/08/08 09:27:34;;;;;;;;;;;;;;;20.79;57.69;100703.63;5034895;28;20372;-62
2021/08/08 09:30:05;;;;;;;;;;;;;;;20.80;57.78;100710.63;5034606;28;20055;-62
2021/08/08 09:32:33;;;;;;;;;;;;;;;20.86;55.33;100717.13;5046461;28;19927;-61
2021/08/08 09:35:06;;;;;;;;;;;;;;;20.82;57.35;100723.81;5029720;28;20114;-61
2021/08/08 09:37:33;;;;;;;;;;;;;;;20.65;58.02;100723.81;5034595;28;19925;-62
2021/08/08 09:40:00;;;;;;;;;;;;;;;20.80;57.08;100724.00;5034335;28;20375;-61
2021/08/08 09:42:27;;;;;;;;;;;;;;;20.65;57.15;100721.16;5034187;28;19944;-62
2021/08/08 09:44:55;;;;;;;;;;;;;;;20.51;57.83;100727.19;5049628;28;19925;-62
2021/08/08 09:47:23;;;;;;;;;;;;;;;20.39;58.20;100730.19;5033310;28;20399;-62
2021/08/08 09:49:59;;;;;;;;;;;;;;;20.80;59.15;100741.88;5033065;28;19920;-62
2021/08/08 09:52:26;;;;;;;;;;;;;;;20.71;58.27;100739.22;5033143;28;20388;-61
2021/08/08 09:54:53;;;;;;;;;;;;;;;20.85;58.39;100742.22;5034096;28;20354;-63
2021/08/08 09:57:19;;;;;;;;;;;;;;;20.73;57.66;100750.56;5031386;28;20245;-63
2021/08/08 09:59:47;;;;;;;;;;;;;;;20.76;58.14;100752.91;5043658;28;19925;-62
2021/08/08 10:02:18;;;;;;;;;;;;;;;20.47;57.53;100757.91;5032596;28;19924;-62
2021/08/08 10:04:45;;;;;;;;;;;;;;;20.70;57.62;100764.25;5049044;28;19990;-63
2021/08/08 10:07:12;;;;;;;;;;;;;;;21.21;58.09;100755.13;5033920;28;20276;-62
2021/08/08 10:09:39;;;;;;;;;;;;;;;21.25;56.60;100756.47;5031619;28;19921;-62
2021/08/08 10:12:29;;;;;;;;;;;;;;;21.31;56.63;100761.13;5045032;28;19921;-61
2021/08/08 10:14:56;;;;;;;;;;;;;;;21.44;54.46;100753.38;5033038;28;19924;-62
2021/08/08 10:17:26;;;;;;;;;;;;;;;21.40;56.01;100754.72;5032474;28;19948;-62
2021/08/08 10:19:53;;;;;;;;;;;;;;;21.72;54.93;100754.78;5048642;28;19967;-62
2021/08/08 10:22:23;;;;;;;;;;;;;;;21.92;54.59;100769.41;5033540;28;19967;-62
2021/08/08 10:24:50;;;;;;;;;;;;;;;21.82;53.27;100773.31;5048668;28;19921;-62
2021/08/08 10:27:21;;;;;;;;;;;;;;;21.85;53.64;100773.78;5033615;28;19927;-62
2021/08/08 10:29:49;;;;;;;;;;;;;;;21.97;52.28;100779.56;5048176;28;20004;-62
2021/08/08 10:32:16;;;;;;;;;;;;;;;22.26;52.22;100778.03;5031571;28;20032;-61
2021/08/08 10:34:42;;;;;;;;;;;;;;;21.93;52.89;100783.63;5045607;28;19967;-62
2021/08/08 10:37:13;;;;;;;;;;;;;;;22.17;53.09;100771.06;5030821;28;19925;-62
2021/08/08 10:39:44;;;;;;;;;;;;;;;21.98;52.38;100785.75;5033799;28;19921;-62
2021/08/08 10:42:13;;;;;;;;;;;;;;;21.99;52.09;100790.97;5031937;28;20396;-62
2021/08/08 10:44:47;;;;;;;;;;;;;;;22.08;52.41;100781.84;5043099;28;19925;-62
2021/08/08 10:47:30;;;;;;;;;;;;;;;22.11;51.33;100789.53;5031213;28;19925;-62
2021/08/08 10:50:17;;;;;;;;;;;;;;;22.28;51.95;100779.53;5032824;28;19929;-62
2021/08/08 10:52:45;;;;;;;;;;;;;;;22.10;51.73;100790.53;5031936;28;19921;-62
2021/08/08 10:55:22;;;;;;;;;;;;;;;22.05;51.97;100795.59;5048446;28;20007;-62
2021/08/08 10:57:48;;;;;;;;;;;;;;;21.97;51.75;100792.97;5048123;28;19988;-60
2021/08/08 11:00:16;;;;;;;;;;;;;;;22.12;51.77;100798.41;5031777;28;20562;-63
2021/08/08 11:02:46;;;;;;;;;;;;;;;22.09;51.68;100801.44;5030519;28;19953;-62
2021/08/08 11:05:17;;;;;;;;;;;;;;;21.75;52.45;100800.75;5029979;28;20380;-61
2021/08/08 11:07:44;;;;;;;;;;;;;;;22.06;52.81;100805.28;5032872;28;19925;-63
2021/08/08 11:10:12;;;;;;;;;;;;;;;22.12;52.55;100809.94;5048090;28;19971;-62
2021/08/08 11:12:39;;;;;;;;;;;;;;;22.27;53.57;100806.50;5032669;28;19925;-63
2021/08/08 11:15:07;;;;;;;;;;;;;;;22.52;52.01;100806.34;5047726;28;20397;-63
2021/08/08 11:17:34;;;;;;;;;;;;;;;22.53;49.96;100808.03;5032917;28;20271;-62
2021/08/08 11:20:00;;;;;;;;;;;;;;;22.50;50.86;100816.44;5048117;28;19924;-62
2021/08/08 11:22:27;;;;;;;;;;;;;;;22.68;51.27;100814.25;5032567;28;19924;-62
2021/08/08 11:24:59;;;;;;;;;;;;;;;22.51;50.91;100816.25;5048143;28;19952;-61
2021/08/08 11:27:30;;;;;;;;;;;;;;;22.45;49.71;100822.31;5031314;28;19921;-62
2021/08/08 11:29:56;;;;;;;;;;;;;;;22.38;49.97;100821.34;5048132;28;19921;-61
2021/08/08 11:32:27;;;;;;;;;;;;;;;22.56;51.19;100813.00;5032607;28;19925;-62
2021/08/08 11:35:07;;;;;;;;;;;;;;;22.68;50.39;100818.78;5032499;28;19948;-52
2021/08/08 11:37:35;;;;;;;;;;;;;;;23.12;50.41;100813.56;5032592;28;19928;-52
2021/08/08 11:40:03;;;;;;;;;;;;;;;22.79;49.09;100816.50;5032560;28;19925;-53
2021/08/08 11:42:32;;;;;;;;;;;;;;;23.10;50.37;100807.50;5032373;28;19975;-53
2021/08/08 11:44:59;;;;;;;;;;;;;;;23.03;48.35;100813.75;5030192;28;20304;-52
2021/08/08 11:47:26;;;;;;;;;;;;;;;23.02;48.50;100812.94;5029624;28;19925;-51
2021/08/08 11:49:53;;;;;;;;;;;;;;;23.12;47.66;100818.91;5046479;28;19932;-52
2021/08/08 11:52:21;;;;;;;;;;;;;;;23.28;48.79;100817.06;5032370;28;19921;-52
2021/08/08 11:54:57;;;;;;;;;;;;;;;23.20;46.75;100817.97;5048008;28;20566;-53
2021/08/08 11:57:28;;;;;;;;;;;;;;;23.56;48.25;100824.47;5031327;28;20272;-52
2021/08/08 11:59:55;;;;;;;;;;;;;;;23.92;46.13;100818.34;5027270;28;19959;-53
2021/08/08 12:02:24;;;;;;;;;;;;;;;24.00;46.38;100820.09;5031761;28;19921;-53
2021/08/08 12:04:52;;;;;;;;;;;;;;;23.82;46.27;100828.50;5032085;28;20441;-53
2021/08/08 12:07:20;;;;;;;;;;;;;;;23.70;46.19;100829.00;5029479;28;19921;-51
2021/08/08 12:09:48;;;;;;;;;;;;;;;23.59;46.81;100822.25;5028269;28;19925;-53
2021/08/08 12:12:15;;;;;;;;;;;;;;;23.88;47.53;100820.56;5031922;28;19925;-53
2021/08/08 12:14:42;;;;;;;;;;;;;;;23.87;46.67;100828.78;5047070;28;19944;-53
2021/08/08 12:17:12;;;;;;;;;;;;;;;24.08;46.49;100826.16;5035581;28;20008;-62
2021/08/08 12:19:39;;;;;;;;;;;;;;;24.12;45.80;100830.13;5050808;28;19928;-61
2021/08/08 12:22:07;;;;;;;;;;;;;;;24.03;47.05;100833.97;5035761;28;19943;-61
2021/08/08 12:24:37;;;;;;;;;;;;;;;23.96;46.18;100843.81;5036036;28;19952;-61
2021/08/08 12:27:04;;;;;;;;;;;;;;;24.06;48.03;100841.63;5035749;28;20312;-61
2021/08/08 12:29:32;;;;;;;;;;;;;;;23.61;47.63;100843.53;5035623;28;20454;-61
2021/08/08 12:32:09;;;;;;;;;;;;;;;23.49;49.35;100861.13;5035547;28;19921;-61
2021/08/08 12:34:35;;;;;;;;;;;;;;;22.39;53.50;100866.72;5017975;28;19963;-60
2021/08/08 12:37:03;;;;;;;;;;;;;;;22.23;57.80;100875.66;5035656;28;20368;-60